Tor Futura — OZZE2 — position and weather

sailwx.info

Track history (hours):
 
Tides and Currents Weather Stations Pressure Air Temp Water Temp Dewpoint Dewpoint Depression Visibility Wind Speed Wind Dir Waves Ship Positions

Tor Futura

Last reported at 2015-May-03 22:33 UTC. Time now 2015-May-04 12:03 UTC.
Position N 37°50' E 009°39'.

Length 183.1 m; beam 25.2 m; draft 7.8 m.

Type: Cargo ship. MMSI: 219927000.

Date/timePositionNaut miles runAvg speedWind from/ knotsBaromVisibWave heightAir tempDewpointWater temp
2015-May-03 22:33N 37°50' E 009°39'1313.3
2015-May-03 21:33N 37°59' E 009°27'1313.3
2015-May-03 20:33N 38°09' E 009°15'1313.0
2015-May-03 19:33N 38°18' E 009°03'1313.0
2015-May-03 18:33N 38°27' E 008°52'1312.8
2015-May-03 17:33N 38°36' E 008°40'1912.9
2015-May-03 16:04N 38°50' E 008°23'912.8
2015-May-03 15:22N 38°58' E 008°17'28713.0
2015-May-02 17:21N 43°09' E 005°12'911.1
2015-May-02 16:33N 43°17' E 005°12'7 7.0
2015-May-02 15:31N 43°19' E 005°22'0 0.0
2015-May-02 14:31N 43°19' E 005°22'0 0.0
2015-May-02 13:31N 43°19' E 005°22'0 0.0
2015-May-02 12:31N 43°19' E 005°22'0 0.0
2015-May-02 11:31N 43°19' E 005°22'0 0.0
2015-May-02 10:31N 43°19' E 005°22'0 0.0
2015-May-02 09:22N 43°19' E 005°22'0 0.0
2015-May-02 08:31N 43°19' E 005°22'0 0.0
2015-May-02 07:31N 43°19' E 005°22'0 0.0
2015-May-02 06:31N 43°19' E 005°22'0 0.0
2015-May-02 05:31N 43°19' E 005°22'0 0.0
2015-May-02 04:33N 43°19' E 005°22'6 6.5
2015-May-02 03:33N 43°17' E 005°13'31016.2
2015-May-01 08:27N 38°45' E 008°28'1516.4
2015-May-01 07:33N 38°37' E 008°44'1717.1
2015-May-01 06:33N 38°27' E 009°02'1717.1
2015-May-01 05:33N 38°16' E 009°19'1817.7
2015-May-01 04:33N 38°06' E 009°37'1917.9
2015-May-01 03:31N 37°54' E 009°55'2217.1
2015-May-01 02:14N 37°40' E 010°17'7 0.3
2015-Apr-30 01:22N 37°33' E 010°14'5613.7
2015-Apr-29 21:17N 38°07' E 009°17'1014.0
2015-Apr-29 20:33N 38°14' E 009°08'6813.6
2015-Apr-29 15:32N 39°06' E 008°10'26613.9
2015-Apr-28 20:23N 42°59' E 005°19'1314.6
2015-Apr-28 19:30N 43°10' E 005°11'1111.4
2015-Apr-28 18:33N 43°20' E 005°17'4 3.3
2015-Apr-28 17:28N 43°19' E 005°22'0 0.0
2015-Apr-28 16:25N 43°19' E 005°22'0 0.0
2015-Apr-28 15:25N 43°19' E 005°22'0 0.0
2015-Apr-28 14:31N 43°19' E 005°22'0 0.0
2015-Apr-28 13:31N 43°19' E 005°22'0 0.0
2015-Apr-28 12:28N 43°19' E 005°22'0 0.0
2015-Apr-28 11:28N 43°19' E 005°22'0 0.0
2015-Apr-28 10:31N 43°19' E 005°22'0 0.0
2015-Apr-28 09:31N 43°19' E 005°22'0 0.0
2015-Apr-28 08:25N 43°19' E 005°22'0 0.0
2015-Apr-28 07:28N 43°19' E 005°22'0 0.0
2015-Apr-28 06:31N 43°19' E 005°22'0 0.0
2015-Apr-28 05:31N 43°19' E 005°22'0 0.0
2015-Apr-28 04:31N 43°19' E 005°22'0 0.0
2015-Apr-28 03:28N 43°19' E 005°22'0 0.0
2015-Apr-28 02:31N 43°19' E 005°22'0 0.0
2015-Apr-28 01:28N 43°19' E 005°22'0 0.0
2015-Apr-28 00:28N 43°19' E 005°22'0 0.0
2015-Apr-27 23:28N 43°19' E 005°22'0 0.0
2015-Apr-27 22:28N 43°19' E 005°22'0 0.0
2015-Apr-27 21:28N 43°19' E 005°22'0 0.0
2015-Apr-27 20:31N 43°19' E 005°22'0 0.0
2015-Apr-27 19:31N 43°19' E 005°22'0 0.0
2015-Apr-27 18:31N 43°19' E 005°22'0 0.0
2015-Apr-27 17:31N 43°19' E 005°22'0 0.0
2015-Apr-27 16:31N 43°19' E 005°22'0 0.0
2015-Apr-27 15:22N 43°19' E 005°22'0 0.0
2015-Apr-27 14:31N 43°19' E 005°22'0 0.0
2015-Apr-27 13:31N 43°19' E 005°22'0 0.0
2015-Apr-27 12:28N 43°19' E 005°22'0 0.0
2015-Apr-27 11:28N 43°19' E 005°22'0 0.0
2015-Apr-27 10:31N 43°19' E 005°22'0 0.0
2015-Apr-27 09:25N 43°19' E 005°22'0 0.0
2015-Apr-27 08:19N 43°19' E 005°22'0 0.0
2015-Apr-27 07:22N 43°19' E 005°22'0 0.0
2015-Apr-27 06:31N 43°19' E 005°22'4 4.5
2015-Apr-27 05:33N 43°19' E 005°16'1312.5
2015-Apr-27 04:31N 43°07' E 005°14'14715.8
2015-Apr-26 19:14N 40°58' E 006°50'1215.8
2015-Apr-26 18:28N 40°48' E 006°58'11515.7
2015-Apr-26 11:06N 39°07' E 008°10'1016.3
2015-Apr-26 10:28N 38°58' E 008°17'2017.5
2015-Apr-26 09:18N 38°43' E 008°35'1316.5
2015-Apr-26 08:29N 38°34' E 008°48'1415.3
2015-Apr-26 07:33N 38°25' E 009°03'1615.7
2015-Apr-26 06:33N 38°16' E 009°18'1615.8
2015-Apr-26 05:33N 38°06' E 009°34'1615.8
2015-Apr-26 04:33N 37°57' E 009°50'86 2.3
2015-Apr-24 15:31N 38°49' E 008°23'1414.3
2015-Apr-24 14:31N 39°02' E 008°14'22715.0
2015-Apr-23 23:25N 42°20' E 005°48'  
Track history (hours):
 
Tides and Currents Weather Stations Pressure Air Temp Water Temp Dewpoint Dewpoint Depression Visibility Wind Speed Wind Dir Waves Ship Positions

Tor Futura

Last reported at 2015-May-03 22:33 UTC. Time now 2015-May-04 12:03 UTC.
Position N 37°50' E 009°39'.

Length 183.1 m; beam 25.2 m; draft 7.8 m.

Type: Cargo ship. MMSI: 219927000.

Date/timePositionNaut miles runAvg speedWind from/ knotsBaromVisibWave heightAir tempDewpointWater temp
2015-May-03 22:33N 37°50' E 009°39'1313.3
2015-May-03 21:33N 37°59' E 009°27'1313.3
2015-May-03 20:33N 38°09' E 009°15'1313.0
2015-May-03 19:33N 38°18' E 009°03'1313.0
2015-May-03 18:33N 38°27' E 008°52'1312.8
2015-May-03 17:33N 38°36' E 008°40'1912.9
2015-May-03 16:04N 38°50' E 008°23'912.8
2015-May-03 15:22N 38°58' E 008°17'28713.0
2015-May-02 17:21N 43°09' E 005°12'911.1
2015-May-02 16:33N 43°17' E 005°12'7 7.0
2015-May-02 15:31N 43°19' E 005°22'0 0.0
2015-May-02 14:31N 43°19' E 005°22'0 0.0
2015-May-02 13:31N 43°19' E 005°22'0 0.0
2015-May-02 12:31N 43°19' E 005°22'0 0.0
2015-May-02 11:31N 43°19' E 005°22'0 0.0
2015-May-02 10:31N 43°19' E 005°22'0 0.0
2015-May-02 09:22N 43°19' E 005°22'0 0.0
2015-May-02 08:31N 43°19' E 005°22'0 0.0
2015-May-02 07:31N 43°19' E 005°22'0 0.0
2015-May-02 06:31N 43°19' E 005°22'0 0.0
2015-May-02 05:31N 43°19' E 005°22'0 0.0
2015-May-02 04:33N 43°19' E 005°22'6 6.5
2015-May-02 03:33N 43°17' E 005°13'31016.2
2015-May-01 08:27N 38°45' E 008°28'1516.4
2015-May-01 07:33N 38°37' E 008°44'1717.1
2015-May-01 06:33N 38°27' E 009°02'1717.1
2015-May-01 05:33N 38°16' E 009°19'1817.7
2015-May-01 04:33N 38°06' E 009°37'1917.9
2015-May-01 03:31N 37°54' E 009°55'2217.1
2015-May-01 02:14N 37°40' E 010°17'7 0.3
2015-Apr-30 01:22N 37°33' E 010°14'5613.7
2015-Apr-29 21:17N 38°07' E 009°17'1014.0
2015-Apr-29 20:33N 38°14' E 009°08'6813.6
2015-Apr-29 15:32N 39°06' E 008°10'26613.9
2015-Apr-28 20:23N 42°59' E 005°19'1314.6
2015-Apr-28 19:30N 43°10' E 005°11'1111.4
2015-Apr-28 18:33N 43°20' E 005°17'4 3.3
2015-Apr-28 17:28N 43°19' E 005°22'0 0.0
2015-Apr-28 16:25N 43°19' E 005°22'0 0.0
2015-Apr-28 15:25N 43°19' E 005°22'0 0.0
2015-Apr-28 14:31N 43°19' E 005°22'0 0.0
2015-Apr-28 13:31N 43°19' E 005°22'0 0.0
2015-Apr-28 12:28N 43°19' E 005°22'0 0.0
2015-Apr-28 11:28N 43°19' E 005°22'0 0.0
2015-Apr-28 10:31N 43°19' E 005°22'0 0.0
2015-Apr-28 09:31N 43°19' E 005°22'0 0.0
2015-Apr-28 08:25N 43°19' E 005°22'0 0.0
2015-Apr-28 07:28N 43°19' E 005°22'0 0.0
2015-Apr-28 06:31N 43°19' E 005°22'0 0.0
2015-Apr-28 05:31N 43°19' E 005°22'0 0.0
2015-Apr-28 04:31N 43°19' E 005°22'0 0.0
2015-Apr-28 03:28N 43°19' E 005°22'0 0.0
2015-Apr-28 02:31N 43°19' E 005°22'0 0.0
2015-Apr-28 01:28N 43°19' E 005°22'0 0.0
2015-Apr-28 00:28N 43°19' E 005°22'0 0.0
2015-Apr-27 23:28N 43°19' E 005°22'0 0.0
2015-Apr-27 22:28N 43°19' E 005°22'0 0.0
2015-Apr-27 21:28N 43°19' E 005°22'0 0.0
2015-Apr-27 20:31N 43°19' E 005°22'0 0.0
2015-Apr-27 19:31N 43°19' E 005°22'0 0.0
2015-Apr-27 18:31N 43°19' E 005°22'0 0.0
2015-Apr-27 17:31N 43°19' E 005°22'0 0.0
2015-Apr-27 16:31N 43°19' E 005°22'0 0.0
2015-Apr-27 15:22N 43°19' E 005°22'0 0.0
2015-Apr-27 14:31N 43°19' E 005°22'0 0.0
2015-Apr-27 13:31N 43°19' E 005°22'0 0.0
2015-Apr-27 12:28N 43°19' E 005°22'0 0.0
2015-Apr-27 11:28N 43°19' E 005°22'0 0.0
2015-Apr-27 10:31N 43°19' E 005°22'0 0.0
2015-Apr-27 09:25N 43°19' E 005°22'0 0.0
2015-Apr-27 08:19N 43°19' E 005°22'0 0.0
2015-Apr-27 07:22N 43°19' E 005°22'0 0.0
2015-Apr-27 06:31N 43°19' E 005°22'4 4.5
2015-Apr-27 05:33N 43°19' E 005°16'1312.5
2015-Apr-27 04:31N 43°07' E 005°14'14715.8
2015-Apr-26 19:14N 40°58' E 006°50'1215.8
2015-Apr-26 18:28N 40°48' E 006°58'11515.7
2015-Apr-26 11:06N 39°07' E 008°10'1016.3
2015-Apr-26 10:28N 38°58' E 008°17'2017.5
2015-Apr-26 09:18N 38°43' E 008°35'1316.5
2015-Apr-26 08:29N 38°34' E 008°48'1415.3
2015-Apr-26 07:33N 38°25' E 009°03'1615.7
2015-Apr-26 06:33N 38°16' E 009°18'1615.8
2015-Apr-26 05:33N 38°06' E 009°34'1615.8
2015-Apr-26 04:33N 37°57' E 009°50'86 2.3
2015-Apr-24 15:31N 38°49' E 008°23'1414.3
2015-Apr-24 14:31N 39°02' E 008°14'22715.0
2015-Apr-23 23:25N 42°20' E 005°48'  

Dump ship's entire track history